sensor_id;sensor_type;location;lat;lon;timestamp;temperature;humidity
50947;DHT22;36955;47.416;7.716;2022-07-04T00:00:28;20.80;99.90
50947;DHT22;36955;47.416;7.716;2022-07-04T00:02:54;20.90;99.90
50947;DHT22;36955;47.416;7.716;2022-07-04T00:05:20;21.00;99.90
50947;DHT22;36955;47.416;7.716;2022-07-04T00:07:48;21.10;99.90
50947;DHT22;36955;47.416;7.716;2022-07-04T00:10:16;21.00;99.90
50947;DHT22;36955;47.416;7.716;2022-07-04T00:12:43;21.10;99.90
50947;DHT22;36955;47.416;7.716;2022-07-04T00:15:10;21.20;99.90
50947;DHT22;36955;47.416;7.716;2022-07-04T00:17:37;21.20;99.90
50947;DHT22;36955;47.416;7.716;2022-07-04T00:20:05;21.20;99.90
50947;DHT22;36955;47.416;7.716;2022-07-04T00:22:31;21.20;99.90
50947;DHT22;36955;47.416;7.716;2022-07-04T00:24:57;21.20;99.90
50947;DHT22;36955;47.416;7.716;2022-07-04T00:27:24;21.20;99.90
50947;DHT22;36955;47.416;7.716;2022-07-04T00:29:50;21.20;99.90
50947;DHT22;36955;47.416;7.716;2022-07-04T00:32:17;21.00;99.90
50947;DHT22;36955;47.416;7.716;2022-07-04T00:34:43;20.80;99.90
50947;DHT22;36955;47.416;7.716;2022-07-04T00:37:10;20.60;99.90
50947;DHT22;36955;47.416;7.716;2022-07-04T00:39:36;20.40;99.90
50947;DHT22;36955;47.416;7.716;2022-07-04T00:42:03;20.20;99.90
50947;DHT22;36955;47.416;7.716;2022-07-04T00:44:30;20.00;99.90
50947;DHT22;36955;47.416;7.716;2022-07-04T00:46:57;19.90;99.90
50947;DHT22;36955;47.416;7.716;2022-07-04T00:49:23;19.80;99.90
50947;DHT22;36955;47.416;7.716;2022-07-04T00:51:49;19.70;99.90
50947;DHT22;36955;47.416;7.716;2022-07-04T00:54:16;19.60;99.90
50947;DHT22;36955;47.416;7.716;2022-07-04T00:56:43;19.40;99.90
50947;DHT22;36955;47.416;7.716;2022-07-04T00:59:10;19.30;99.90
50947;DHT22;36955;47.416;7.716;2022-07-04T01:01:37;19.20;99.90
50947;DHT22;36955;47.416;7.716;2022-07-04T01:04:05;19.10;99.90
50947;DHT22;36955;47.416;7.716;2022-07-04T01:06:32;19.10;99.90
50947;DHT22;36955;47.416;7.716;2022-07-04T01:08:59;19.10;99.90
50947;DHT22;36955;47.416;7.716;2022-07-04T01:11:26;19.10;99.90
50947;DHT22;36955;47.416;7.716;2022-07-04T01:13:55;19.10;99.90
50947;DHT22;36955;47.416;7.716;2022-07-04T01:16:24;19.00;99.90
50947;DHT22;36955;47.416;7.716;2022-07-04T01:18:51;19.00;99.90
50947;DHT22;36955;47.416;7.716;2022-07-04T01:21:17;18.90;99.90
50947;DHT22;36955;47.416;7.716;2022-07-04T01:23:44;18.90;99.90
50947;DHT22;36955;47.416;7.716;2022-07-04T01:26:10;18.90;99.90
50947;DHT22;36955;47.416;7.716;2022-07-04T01:28:37;18.90;99.90
50947;DHT22;36955;47.416;7.716;2022-07-04T01:31:04;18.90;99.90
50947;DHT22;36955;47.416;7.716;2022-07-04T01:33:30;18.90;99.90
50947;DHT22;36955;47.416;7.716;2022-07-04T01:35:56;18.90;99.90
50947;DHT22;36955;47.416;7.716;2022-07-04T01:38:23;18.90;99.90
50947;DHT22;36955;47.416;7.716;2022-07-04T01:40:49;18.80;99.90
50947;DHT22;36955;47.416;7.716;2022-07-04T01:43:15;18.70;99.90
50947;DHT22;36955;47.416;7.716;2022-07-04T01:45:41;18.70;99.90
50947;DHT22;36955;47.416;7.716;2022-07-04T01:48:09;18.70;99.90
50947;DHT22;36955;47.416;7.716;2022-07-04T01:50:35;18.60;99.90
50947;DHT22;36955;47.416;7.716;2022-07-04T01:53:02;18.60;99.90
50947;DHT22;36955;47.416;7.716;2022-07-04T01:55:29;18.50;99.90
50947;DHT22;36955;47.416;7.716;2022-07-04T01:57:55;18.40;99.90
50947;DHT22;36955;47.416;7.716;2022-07-04T02:00:22;18.30;99.90
50947;DHT22;36955;47.416;7.716;2022-07-04T02:02:48;18.20;99.90
50947;DHT22;36955;47.416;7.716;2022-07-04T02:05:14;18.10;99.90
50947;DHT22;36955;47.416;7.716;2022-07-04T02:07:40;18.00;99.90
50947;DHT22;36955;47.416;7.716;2022-07-04T02:10:07;17.80;99.90
50947;DHT22;36955;47.416;7.716;2022-07-04T02:12:33;17.70;99.90
50947;DHT22;36955;47.416;7.716;2022-07-04T02:14:59;17.70;99.90
50947;DHT22;36955;47.416;7.716;2022-07-04T02:17:26;17.60;99.90
50947;DHT22;36955;47.416;7.716;2022-07-04T02:19:52;17.60;99.90
50947;DHT22;36955;47.416;7.716;2022-07-04T02:22:18;17.60;99.90
50947;DHT22;36955;47.416;7.716;2022-07-04T02:24:44;17.60;99.90
50947;DHT22;36955;47.416;7.716;2022-07-04T02:27:10;17.50;99.90
50947;DHT22;36955;47.416;7.716;2022-07-04T02:29:36;17.50;99.90
50947;DHT22;36955;47.416;7.716;2022-07-04T02:32:03;17.50;99.90
50947;DHT22;36955;47.416;7.716;2022-07-04T02:34:29;17.50;99.90
50947;DHT22;36955;47.416;7.716;2022-07-04T02:36:56;17.50;99.90
50947;DHT22;36955;47.416;7.716;2022-07-04T02:39:22;17.60;99.90
50947;DHT22;36955;47.416;7.716;2022-07-04T02:41:48;17.60;99.90
50947;DHT22;36955;47.416;7.716;2022-07-04T02:44:14;17.60;99.90
50947;DHT22;36955;47.416;7.716;2022-07-04T02:46:40;17.50;99.90
50947;DHT22;36955;47.416;7.716;2022-07-04T02:49:06;17.50;99.90
50947;DHT22;36955;47.416;7.716;2022-07-04T02:51:32;17.50;99.90
50947;DHT22;36955;47.416;7.716;2022-07-04T02:53:58;17.40;99.90
50947;DHT22;36955;47.416;7.716;2022-07-04T02:56:24;17.30;99.90
50947;DHT22;36955;47.416;7.716;2022-07-04T02:58:50;17.20;99.90
50947;DHT22;36955;47.416;7.716;2022-07-04T03:01:17;17.10;99.90
50947;DHT22;36955;47.416;7.716;2022-07-04T03:03:43;17.10;99.90
50947;DHT22;36955;47.416;7.716;2022-07-04T03:06:10;17.10;99.90
50947;DHT22;36955;47.416;7.716;2022-07-04T03:08:36;17.10;99.90
50947;DHT22;36955;47.416;7.716;2022-07-04T03:11:03;17.20;99.90
50947;DHT22;36955;47.416;7.716;2022-07-04T03:13:29;17.20;99.90
50947;DHT22;36955;47.416;7.716;2022-07-04T03:15:55;17.20;99.90
50947;DHT22;36955;47.416;7.716;2022-07-04T03:18:22;17.20;99.90
50947;DHT22;36955;47.416;7.716;2022-07-04T03:20:48;17.20;99.90
50947;DHT22;36955;47.416;7.716;2022-07-04T03:23:14;17.30;99.90
50947;DHT22;36955;47.416;7.716;2022-07-04T03:25:40;17.20;99.90
50947;DHT22;36955;47.416;7.716;2022-07-04T03:28:07;17.20;99.90
50947;DHT22;36955;47.416;7.716;2022-07-04T03:30:33;17.30;99.90
50947;DHT22;36955;47.416;7.716;2022-07-04T03:33:00;17.30;99.90
50947;DHT22;36955;47.416;7.716;2022-07-04T03:35:26;17.30;99.90
50947;DHT22;36955;47.416;7.716;2022-07-04T03:37:53;17.30;99.90
50947;DHT22;36955;47.416;7.716;2022-07-04T03:40:20;17.20;99.90
50947;DHT22;36955;47.416;7.716;2022-07-04T03:42:46;17.20;99.90
50947;DHT22;36955;47.416;7.716;2022-07-04T03:45:12;17.20;99.90
50947;DHT22;36955;47.416;7.716;2022-07-04T03:47:38;17.30;99.90
50947;DHT22;36955;47.416;7.716;2022-07-04T03:50:05;17.30;99.90
50947;DHT22;36955;47.416;7.716;2022-07-04T03:52:31;17.30;99.90
50947;DHT22;36955;47.416;7.716;2022-07-04T03:54:58;17.30;99.90
50947;DHT22;36955;47.416;7.716;2022-07-04T03:57:24;17.30;99.90
50947;DHT22;36955;47.416;7.716;2022-07-04T03:59:50;17.30;99.90
50947;DHT22;36955;47.416;7.716;2022-07-04T04:02:16;17.20;99.90
50947;DHT22;36955;47.416;7.716;2022-07-04T04:04:42;17.30;99.90
50947;DHT22;36955;47.416;7.716;2022-07-04T04:07:08;17.20;99.90
50947;DHT22;36955;47.416;7.716;2022-07-04T04:09:34;17.30;99.90
50947;DHT22;36955;47.416;7.716;2022-07-04T04:12:00;17.20;99.90
50947;DHT22;36955;47.416;7.716;2022-07-04T04:14:26;17.20;99.90
50947;DHT22;36955;47.416;7.716;2022-07-04T04:16:53;17.10;99.90
50947;DHT22;36955;47.416;7.716;2022-07-04T04:19:19;17.00;99.90
50947;DHT22;36955;47.416;7.716;2022-07-04T04:21:45;17.00;99.90
50947;DHT22;36955;47.416;7.716;2022-07-04T04:24:11;17.00;99.90
50947;DHT22;36955;47.416;7.716;2022-07-04T04:26:37;17.10;99.90
50947;DHT22;36955;47.416;7.716;2022-07-04T04:29:04;17.10;99.90
50947;DHT22;36955;47.416;7.716;2022-07-04T04:31:30;17.20;99.90
50947;DHT22;36955;47.416;7.716;2022-07-04T04:33:57;17.20;99.90
50947;DHT22;36955;47.416;7.716;2022-07-04T04:36:23;17.20;99.90
50947;DHT22;36955;47.416;7.716;2022-07-04T04:38:49;17.20;99.90
50947;DHT22;36955;47.416;7.716;2022-07-04T04:41:15;17.30;99.90
50947;DHT22;36955;47.416;7.716;2022-07-04T04:43:41;17.30;99.90
50947;DHT22;36955;47.416;7.716;2022-07-04T04:46:07;17.30;99.90
50947;DHT22;36955;47.416;7.716;2022-07-04T04:48:33;17.30;99.90
50947;DHT22;36955;47.416;7.716;2022-07-04T04:50:59;17.20;99.90
50947;DHT22;36955;47.416;7.716;2022-07-04T04:53:25;17.20;99.90
50947;DHT22;36955;47.416;7.716;2022-07-04T04:55:52;17.10;99.90
50947;DHT22;36955;47.416;7.716;2022-07-04T04:58:19;17.10;99.90
50947;DHT22;36955;47.416;7.716;2022-07-04T05:00:46;17.10;99.90
50947;DHT22;36955;47.416;7.716;2022-07-04T05:03:12;17.00;99.90
50947;DHT22;36955;47.416;7.716;2022-07-04T05:05:38;17.00;99.90
50947;DHT22;36955;47.416;7.716;2022-07-04T05:08:04;17.00;99.90
50947;DHT22;36955;47.416;7.716;2022-07-04T05:10:30;17.00;99.90
50947;DHT22;36955;47.416;7.716;2022-07-04T05:12:56;17.10;99.90
50947;DHT22;36955;47.416;7.716;2022-07-04T05:15:22;17.10;99.90
50947;DHT22;36955;47.416;7.716;2022-07-04T05:17:49;17.10;99.90
50947;DHT22;36955;47.416;7.716;2022-07-04T05:20:15;17.10;99.90
50947;DHT22;36955;47.416;7.716;2022-07-04T05:22:41;17.00;99.90
50947;DHT22;36955;47.416;7.716;2022-07-04T05:25:07;17.00;99.90
50947;DHT22;36955;47.416;7.716;2022-07-04T05:27:33;17.00;99.90
50947;DHT22;36955;47.416;7.716;2022-07-04T05:29:59;17.00;99.90
50947;DHT22;36955;47.416;7.716;2022-07-04T05:32:26;17.00;99.90
50947;DHT22;36955;47.416;7.716;2022-07-04T05:34:52;17.00;99.90
50947;DHT22;36955;47.416;7.716;2022-07-04T05:37:19;17.00;99.90
50947;DHT22;36955;47.416;7.716;2022-07-04T05:39:45;16.90;99.90
50947;DHT22;36955;47.416;7.716;2022-07-04T05:42:11;16.90;99.90
50947;DHT22;36955;47.416;7.716;2022-07-04T05:44:37;16.80;99.90
50947;DHT22;36955;47.416;7.716;2022-07-04T05:47:03;16.90;99.90
50947;DHT22;36955;47.416;7.716;2022-07-04T05:49:29;16.90;99.90
50947;DHT22;36955;47.416;7.716;2022-07-04T05:51:55;16.90;99.90
50947;DHT22;36955;47.416;7.716;2022-07-04T05:54:21;16.90;99.90
50947;DHT22;36955;47.416;7.716;2022-07-04T05:56:47;17.00;99.90
50947;DHT22;36955;47.416;7.716;2022-07-04T05:59:13;17.00;99.90
50947;DHT22;36955;47.416;7.716;2022-07-04T06:01:39;17.10;99.90
50947;DHT22;36955;47.416;7.716;2022-07-04T06:04:05;17.10;99.90
50947;DHT22;36955;47.416;7.716;2022-07-04T06:06:32;17.20;99.90
50947;DHT22;36955;47.416;7.716;2022-07-04T06:08:58;17.30;99.90
50947;DHT22;36955;47.416;7.716;2022-07-04T06:11:24;17.30;99.90
50947;DHT22;36955;47.416;7.716;2022-07-04T06:13:50;17.30;99.90
50947;DHT22;36955;47.416;7.716;2022-07-04T06:16:16;17.30;99.90
50947;DHT22;36955;47.416;7.716;2022-07-04T06:18:43;17.30;99.90
50947;DHT22;36955;47.416;7.716;2022-07-04T06:21:09;17.30;99.90
50947;DHT22;36955;47.416;7.716;2022-07-04T06:23:36;17.30;99.90
50947;DHT22;36955;47.416;7.716;2022-07-04T06:26:02;17.30;99.90
50947;DHT22;36955;47.416;7.716;2022-07-04T06:28:28;17.40;99.90
50947;DHT22;36955;47.416;7.716;2022-07-04T06:30:55;17.40;99.90
50947;DHT22;36955;47.416;7.716;2022-07-04T06:33:21;17.40;99.90
50947;DHT22;36955;47.416;7.716;2022-07-04T06:35:47;17.40;99.90
50947;DHT22;36955;47.416;7.716;2022-07-04T06:38:15;17.40;99.90
50947;DHT22;36955;47.416;7.716;2022-07-04T06:40:42;17.50;99.90
50947;DHT22;36955;47.416;7.716;2022-07-04T06:43:08;17.60;99.90
50947;DHT22;36955;47.416;7.716;2022-07-04T06:45:35;17.70;99.90
50947;DHT22;36955;47.416;7.716;2022-07-04T06:48:05;17.80;99.90
50947;DHT22;36955;47.416;7.716;2022-07-04T06:50:32;17.80;99.90
50947;DHT22;36955;47.416;7.716;2022-07-04T06:52:59;17.90;99.90
50947;DHT22;36955;47.416;7.716;2022-07-04T06:55:38;17.90;99.90
50947;DHT22;36955;47.416;7.716;2022-07-04T06:58:05;17.80;99.90
50947;DHT22;36955;47.416;7.716;2022-07-04T07:00:31;17.60;99.90
50947;DHT22;36955;47.416;7.716;2022-07-04T07:02:58;17.50;99.90
50947;DHT22;36955;47.416;7.716;2022-07-04T07:05:26;17.50;99.90
50947;DHT22;36955;47.416;7.716;2022-07-04T07:07:52;17.40;99.90
50947;DHT22;36955;47.416;7.716;2022-07-04T07:10:18;17.50;99.90
50947;DHT22;36955;47.416;7.716;2022-07-04T07:12:44;17.70;99.90
50947;DHT22;36955;47.416;7.716;2022-07-04T07:15:10;17.80;99.90
50947;DHT22;36955;47.416;7.716;2022-07-04T07:17:37;17.80;99.90
50947;DHT22;36955;47.416;7.716;2022-07-04T07:20:03;17.80;99.90
50947;DHT22;36955;47.416;7.716;2022-07-04T07:22:29;17.80;99.90
50947;DHT22;36955;47.416;7.716;2022-07-04T07:24:56;17.70;99.90
50947;DHT22;36955;47.416;7.716;2022-07-04T07:27:22;17.80;99.90
50947;DHT22;36955;47.416;7.716;2022-07-04T07:29:48;17.80;99.90
50947;DHT22;36955;47.416;7.716;2022-07-04T07:32:14;17.90;99.90
50947;DHT22;36955;47.416;7.716;2022-07-04T07:34:40;18.00;99.90
50947;DHT22;36955;47.416;7.716;2022-07-04T07:37:06;18.10;99.90
50947;DHT22;36955;47.416;7.716;2022-07-04T07:39:32;18.20;99.90
50947;DHT22;36955;47.416;7.716;2022-07-04T07:41:58;18.20;99.90
50947;DHT22;36955;47.416;7.716;2022-07-04T07:44:24;18.30;99.90
50947;DHT22;36955;47.416;7.716;2022-07-04T07:46:50;18.40;99.90
50947;DHT22;36955;47.416;7.716;2022-07-04T07:49:17;18.50;99.90
50947;DHT22;36955;47.416;7.716;2022-07-04T07:51:43;18.60;99.90
50947;DHT22;36955;47.416;7.716;2022-07-04T07:54:09;18.70;99.90
50947;DHT22;36955;47.416;7.716;2022-07-04T07:56:35;18.80;99.90
50947;DHT22;36955;47.416;7.716;2022-07-04T07:59:01;18.90;99.90
50947;DHT22;36955;47.416;7.716;2022-07-04T08:01:27;19.00;99.90
50947;DHT22;36955;47.416;7.716;2022-07-04T08:03:53;19.10;99.90
50947;DHT22;36955;47.416;7.716;2022-07-04T08:06:19;19.20;99.90
50947;DHT22;36955;47.416;7.716;2022-07-04T08:08:45;19.30;99.90
50947;DHT22;36955;47.416;7.716;2022-07-04T08:11:12;19.40;99.90
50947;DHT22;36955;47.416;7.716;2022-07-04T08:13:39;19.40;99.90
50947;DHT22;36955;47.416;7.716;2022-07-04T08:16:06;19.40;99.90
50947;DHT22;36955;47.416;7.716;2022-07-04T08:18:33;19.40;99.90
50947;DHT22;36955;47.416;7.716;2022-07-04T08:20:59;19.40;99.90
50947;DHT22;36955;47.416;7.716;2022-07-04T08:23:26;19.30;99.90
50947;DHT22;36955;47.416;7.716;2022-07-04T08:25:52;19.30;99.90
50947;DHT22;36955;47.416;7.716;2022-07-04T08:28:18;19.40;99.90
50947;DHT22;36955;47.416;7.716;2022-07-04T08:30:44;19.40;99.90
50947;DHT22;36955;47.416;7.716;2022-07-04T08:33:10;19.40;99.90
50947;DHT22;36955;47.416;7.716;2022-07-04T08:35:36;19.60;99.90
50947;DHT22;36955;47.416;7.716;2022-07-04T08:38:02;19.70;99.90
50947;DHT22;36955;47.416;7.716;2022-07-04T08:40:30;19.80;99.90
50947;DHT22;36955;47.416;7.716;2022-07-04T08:42:57;19.80;99.90
50947;DHT22;36955;47.416;7.716;2022-07-04T08:45:27;19.80;99.90
50947;DHT22;36955;47.416;7.716;2022-07-04T08:48:08;19.90;99.90
50947;DHT22;36955;47.416;7.716;2022-07-04T08:50:47;20.00;99.90
50947;DHT22;36955;47.416;7.716;2022-07-04T08:53:21;20.10;99.90
50947;DHT22;36955;47.416;7.716;2022-07-04T08:55:51;20.20;99.90
50947;DHT22;36955;47.416;7.716;2022-07-04T08:58:18;20.30;99.90
50947;DHT22;36955;47.416;7.716;2022-07-04T09:00:44;20.40;99.90
50947;DHT22;36955;47.416;7.716;2022-07-04T09:03:10;20.50;99.90
50947;DHT22;36955;47.416;7.716;2022-07-04T09:05:36;20.50;99.90
50947;DHT22;36955;47.416;7.716;2022-07-04T09:08:03;20.70;99.90
50947;DHT22;36955;47.416;7.716;2022-07-04T09:10:30;20.70;99.90
50947;DHT22;36955;47.416;7.716;2022-07-04T09:12:56;20.70;99.90
50947;DHT22;36955;47.416;7.716;2022-07-04T09:15:22;20.90;99.90
50947;DHT22;36955;47.416;7.716;2022-07-04T09:17:48;21.00;99.90
50947;DHT22;36955;47.416;7.716;2022-07-04T09:20:16;21.20;99.90
50947;DHT22;36955;47.416;7.716;2022-07-04T09:22:43;21.30;99.90
50947;DHT22;36955;47.416;7.716;2022-07-04T09:25:10;21.40;99.90
50947;DHT22;36955;47.416;7.716;2022-07-04T09:27:38;21.40;99.90
50947;DHT22;36955;47.416;7.716;2022-07-04T09:30:05;21.50;99.90
50947;DHT22;36955;47.416;7.716;2022-07-04T09:32:42;21.50;99.90
50947;DHT22;36955;47.416;7.716;2022-07-04T09:35:20;21.40;99.90
50947;DHT22;36955;47.416;7.716;2022-07-04T09:37:52;21.30;99.90
50947;DHT22;36955;47.416;7.716;2022-07-04T09:42:58;20.90;99.90
50947;DHT22;36955;47.416;7.716;2022-07-04T09:45:26;20.80;99.90
50947;DHT22;36955;47.416;7.716;2022-07-04T09:47:59;20.80;99.90
50947;DHT22;36955;47.416;7.716;2022-07-04T09:50:26;20.90;99.90
50947;DHT22;36955;47.416;7.716;2022-07-04T09:53:00;21.00;99.90
50947;DHT22;36955;47.416;7.716;2022-07-04T09:57:56;20.90;99.90
50947;DHT22;36955;47.416;7.716;2022-07-04T10:00:26;20.90;99.90
50947;DHT22;36955;47.416;7.716;2022-07-04T10:02:54;20.90;99.90
50947;DHT22;36955;47.416;7.716;2022-07-04T10:05:25;21.00;99.90
50947;DHT22;36955;47.416;7.716;2022-07-04T10:07:56;21.10;99.90
50947;DHT22;36955;47.416;7.716;2022-07-04T10:10:34;21.30;99.90
50947;DHT22;36955;47.416;7.716;2022-07-04T10:13:03;21.50;99.90
50947;DHT22;36955;47.416;7.716;2022-07-04T10:15:30;21.40;99.90
50947;DHT22;36955;47.416;7.716;2022-07-04T10:17:57;21.20;99.90
50947;DHT22;36955;47.416;7.716;2022-07-04T10:20:23;21.20;99.90
50947;DHT22;36955;47.416;7.716;2022-07-04T10:22:49;21.20;99.90
50947;DHT22;36955;47.416;7.716;2022-07-04T10:25:15;21.20;99.90
50947;DHT22;36955;47.416;7.716;2022-07-04T10:27:42;21.30;99.90
50947;DHT22;36955;47.416;7.716;2022-07-04T10:30:12;21.50;99.90
50947;DHT22;36955;47.416;7.716;2022-07-04T10:32:40;21.60;99.90
50947;DHT22;36955;47.416;7.716;2022-07-04T10:35:06;21.80;99.90
50947;DHT22;36955;47.416;7.716;2022-07-04T10:38:05;22.00;99.90
50947;DHT22;36955;47.416;7.716;2022-07-04T10:40:49;22.20;99.90
50947;DHT22;36955;47.416;7.716;2022-07-04T10:48:28;21.80;99.90
50947;DHT22;36955;47.416;7.716;2022-07-04T10:51:05;21.70;99.90
50947;DHT22;36955;47.416;7.716;2022-07-04T10:53:32;21.70;99.90
50947;DHT22;36955;47.416;7.716;2022-07-04T10:58:57;21.80;99.90
50947;DHT22;36955;47.416;7.716;2022-07-04T11:01:23;22.00;99.90
50947;DHT22;36955;47.416;7.716;2022-07-04T11:03:51;22.00;99.90
50947;DHT22;36955;47.416;7.716;2022-07-04T11:09:18;22.00;99.90
50947;DHT22;36955;47.416;7.716;2022-07-04T11:12:01;22.10;99.90
50947;DHT22;36955;47.416;7.716;2022-07-04T11:14:39;22.00;99.90
50947;DHT22;36955;47.416;7.716;2022-07-04T11:19:36;22.00;99.90
50947;DHT22;36955;47.416;7.716;2022-07-04T11:22:04;22.00;99.90
50947;DHT22;36955;47.416;7.716;2022-07-04T11:24:31;22.00;99.90
50947;DHT22;36955;47.416;7.716;2022-07-04T11:26:58;22.00;99.90
50947;DHT22;36955;47.416;7.716;2022-07-04T11:29:24;22.00;99.90
50947;DHT22;36955;47.416;7.716;2022-07-04T11:31:51;22.00;99.90
50947;DHT22;36955;47.416;7.716;2022-07-04T11:34:18;21.90;99.90
50947;DHT22;36955;47.416;7.716;2022-07-04T11:36:47;22.10;99.90
50947;DHT22;36955;47.416;7.716;2022-07-04T11:39:15;22.30;99.90
50947;DHT22;36955;47.416;7.716;2022-07-04T11:41:43;22.50;99.90
50947;DHT22;36955;47.416;7.716;2022-07-04T11:44:14;22.70;99.90
50947;DHT22;36955;47.416;7.716;2022-07-04T11:46:40;22.90;99.90
50947;DHT22;36955;47.416;7.716;2022-07-04T11:49:10;23.00;99.90
50947;DHT22;36955;47.416;7.716;2022-07-04T11:51:45;23.00;99.90
50947;DHT22;36955;47.416;7.716;2022-07-04T11:54:11;23.00;99.90
50947;DHT22;36955;47.416;7.716;2022-07-04T11:56:37;22.90;99.90
50947;DHT22;36955;47.416;7.716;2022-07-04T11:59:12;22.80;99.90
50947;DHT22;36955;47.416;7.716;2022-07-04T12:01:40;22.60;99.90
50947;DHT22;36955;47.416;7.716;2022-07-04T12:04:32;22.50;99.90
50947;DHT22;36955;47.416;7.716;2022-07-04T12:07:12;22.20;99.90
50947;DHT22;36955;47.416;7.716;2022-07-04T12:09:38;22.10;99.90
50947;DHT22;36955;47.416;7.716;2022-07-04T12:12:05;22.10;99.90
50947;DHT22;36955;47.416;7.716;2022-07-04T12:14:32;22.10;99.90
50947;DHT22;36955;47.416;7.716;2022-07-04T12:20:00;22.00;99.90
50947;DHT22;36955;47.416;7.716;2022-07-04T12:22:35;22.10;99.90
50947;DHT22;36955;47.416;7.716;2022-07-04T12:25:03;22.10;99.90
50947;DHT22;36955;47.416;7.716;2022-07-04T12:27:30;22.10;99.90
50947;DHT22;36955;47.416;7.716;2022-07-04T12:29:57;22.00;99.90
50947;DHT22;36955;47.416;7.716;2022-07-04T12:32:24;22.00;99.90
50947;DHT22;36955;47.416;7.716;2022-07-04T12:35:08;21.80;99.90
50947;DHT22;36955;47.416;7.716;2022-07-04T12:37:34;21.70;99.90
50947;DHT22;36955;47.416;7.716;2022-07-04T12:40:08;21.70;99.90
50947;DHT22;36955;47.416;7.716;2022-07-04T12:42:34;21.70;99.90
50947;DHT22;36955;47.416;7.716;2022-07-04T12:45:05;21.80;99.90
50947;DHT22;36955;47.416;7.716;2022-07-04T12:47:31;21.80;99.90
50947;DHT22;36955;47.416;7.716;2022-07-04T12:49:57;21.90;99.90
50947;DHT22;36955;47.416;7.716;2022-07-04T12:52:26;21.80;99.90
50947;DHT22;36955;47.416;7.716;2022-07-04T12:55:06;21.80;99.90
50947;DHT22;36955;47.416;7.716;2022-07-04T12:57:33;21.80;99.90
50947;DHT22;36955;47.416;7.716;2022-07-04T12:59:59;21.60;99.90
50947;DHT22;36955;47.416;7.716;2022-07-04T13:02:25;21.50;99.90
50947;DHT22;36955;47.416;7.716;2022-07-04T13:04:51;21.40;99.90
50947;DHT22;36955;47.416;7.716;2022-07-04T13:07:17;21.30;99.90
50947;DHT22;36955;47.416;7.716;2022-07-04T13:09:45;21.20;99.90
50947;DHT22;36955;47.416;7.716;2022-07-04T13:12:12;21.20;99.90
50947;DHT22;36955;47.416;7.716;2022-07-04T13:14:38;21.20;99.90
50947;DHT22;36955;47.416;7.716;2022-07-04T13:17:04;21.20;99.90
50947;DHT22;36955;47.416;7.716;2022-07-04T13:19:30;21.10;99.90
50947;DHT22;36955;47.416;7.716;2022-07-04T13:21:56;21.00;99.90
50947;DHT22;36955;47.416;7.716;2022-07-04T13:24:22;20.90;99.90
50947;DHT22;36955;47.416;7.716;2022-07-04T13:26:48;20.90;99.90
50947;DHT22;36955;47.416;7.716;2022-07-04T13:29:14;20.80;99.90
50947;DHT22;36955;47.416;7.716;2022-07-04T13:31:40;20.80;99.90
50947;DHT22;36955;47.416;7.716;2022-07-04T13:34:07;20.70;99.90
50947;DHT22;36955;47.416;7.716;2022-07-04T13:36:33;20.70;99.90
50947;DHT22;36955;47.416;7.716;2022-07-04T13:38:59;20.70;99.90
50947;DHT22;36955;47.416;7.716;2022-07-04T13:41:25;20.70;99.90
50947;DHT22;36955;47.416;7.716;2022-07-04T13:43:51;20.60;99.90
50947;DHT22;36955;47.416;7.716;2022-07-04T13:46:17;20.60;99.90
50947;DHT22;36955;47.416;7.716;2022-07-04T13:48:43;20.40;99.90
50947;DHT22;36955;47.416;7.716;2022-07-04T13:51:09;20.30;99.90
50947;DHT22;36955;47.416;7.716;2022-07-04T13:53:35;20.20;99.90
50947;DHT22;36955;47.416;7.716;2022-07-04T13:56:02;20.00;99.90
50947;DHT22;36955;47.416;7.716;2022-07-04T13:58:28;19.90;99.90
50947;DHT22;36955;47.416;7.716;2022-07-04T14:00:54;19.80;99.90
50947;DHT22;36955;47.416;7.716;2022-07-04T14:03:20;19.70;99.90
50947;DHT22;36955;47.416;7.716;2022-07-04T14:05:46;19.70;99.90
50947;DHT22;36955;47.416;7.716;2022-07-04T14:08:12;19.70;99.90
50947;DHT22;36955;47.416;7.716;2022-07-04T14:10:38;19.70;99.90
50947;DHT22;36955;47.416;7.716;2022-07-04T14:13:04;19.70;99.90
50947;DHT22;36955;47.416;7.716;2022-07-04T14:15:30;19.70;99.90
50947;DHT22;36955;47.416;7.716;2022-07-04T14:17:56;19.70;99.90
50947;DHT22;36955;47.416;7.716;2022-07-04T14:20:22;19.70;99.90
50947;DHT22;36955;47.416;7.716;2022-07-04T14:22:48;19.70;99.90
50947;DHT22;36955;47.416;7.716;2022-07-04T14:25:14;19.70;99.90
50947;DHT22;36955;47.416;7.716;2022-07-04T14:27:40;19.70;99.90
50947;DHT22;36955;47.416;7.716;2022-07-04T14:30:06;19.80;99.90
50947;DHT22;36955;47.416;7.716;2022-07-04T14:32:33;19.80;99.90
50947;DHT22;36955;47.416;7.716;2022-07-04T14:34:59;19.90;99.90
50947;DHT22;36955;47.416;7.716;2022-07-04T14:37:25;20.00;99.90
50947;DHT22;36955;47.416;7.716;2022-07-04T14:39:51;20.10;99.90
50947;DHT22;36955;47.416;7.716;2022-07-04T14:42:17;20.20;99.90
50947;DHT22;36955;47.416;7.716;2022-07-04T14:44:43;20.40;99.90
50947;DHT22;36955;47.416;7.716;2022-07-04T14:47:09;20.60;99.90
50947;DHT22;36955;47.416;7.716;2022-07-04T14:49:35;20.90;99.90
50947;DHT22;36955;47.416;7.716;2022-07-04T14:52:01;21.10;99.90
50947;DHT22;36955;47.416;7.716;2022-07-04T14:54:27;21.30;99.90
50947;DHT22;36955;47.416;7.716;2022-07-04T14:56:53;21.40;99.90
50947;DHT22;36955;47.416;7.716;2022-07-04T14:59:19;21.60;99.90
50947;DHT22;36955;47.416;7.716;2022-07-04T15:01:45;21.60;99.90
50947;DHT22;36955;47.416;7.716;2022-07-04T15:04:11;21.70;99.90
50947;DHT22;36955;47.416;7.716;2022-07-04T15:06:37;21.70;99.90
50947;DHT22;36955;47.416;7.716;2022-07-04T15:09:04;21.70;99.90
50947;DHT22;36955;47.416;7.716;2022-07-04T15:11:31;21.70;99.90
50947;DHT22;36955;47.416;7.716;2022-07-04T15:13:57;21.70;99.90
50947;DHT22;36955;47.416;7.716;2022-07-04T15:16:23;21.70;99.90
50947;DHT22;36955;47.416;7.716;2022-07-04T15:18:49;21.60;99.90
50947;DHT22;36955;47.416;7.716;2022-07-04T15:21:15;21.70;99.90
50947;DHT22;36955;47.416;7.716;2022-07-04T15:23:42;21.60;99.90
50947;DHT22;36955;47.416;7.716;2022-07-04T15:26:09;21.70;99.90
50947;DHT22;36955;47.416;7.716;2022-07-04T15:28:35;21.70;99.90
50947;DHT22;36955;47.416;7.716;2022-07-04T15:31:01;21.70;99.90
50947;DHT22;36955;47.416;7.716;2022-07-04T15:33:27;21.70;99.90
50947;DHT22;36955;47.416;7.716;2022-07-04T15:35:54;21.80;99.90
50947;DHT22;36955;47.416;7.716;2022-07-04T15:38:20;21.70;99.90
50947;DHT22;36955;47.416;7.716;2022-07-04T15:40:46;21.70;99.90
50947;DHT22;36955;47.416;7.716;2022-07-04T15:43:13;21.70;99.90
50947;DHT22;36955;47.416;7.716;2022-07-04T15:45:39;21.70;99.90
50947;DHT22;36955;47.416;7.716;2022-07-04T15:48:05;21.80;99.90
50947;DHT22;36955;47.416;7.716;2022-07-04T15:50:31;21.80;99.90